createdAt,value
2019-03-12T00:02:14.172Z,90.18
2019-03-12T00:04:49.092Z,90.27
2019-03-12T00:07:24.319Z,89.91
2019-03-12T00:10:06.339Z,89.58
2019-03-12T00:12:41.330Z,89.78
2019-03-12T00:15:16.537Z,90.04
2019-03-12T00:17:51.921Z,90.25
2019-03-12T00:20:29.925Z,90.49
2019-03-12T00:23:09.202Z,89.98
2019-03-12T00:25:47.250Z,90.01
2019-03-12T00:28:22.259Z,90.17
2019-03-12T00:30:57.144Z,90.49
2019-03-12T00:33:31.998Z,90.62
2019-03-12T00:36:07.026Z,90.71
2019-03-12T00:38:42.074Z,91.07
2019-03-12T00:41:20.051Z,90.72
2019-03-12T00:43:54.418Z,90.83
2019-03-12T00:46:29.464Z,91.28
2019-03-12T00:49:04.487Z,91.08
2019-03-12T00:51:39.464Z,90.65
2019-03-12T00:54:14.335Z,90.44
2019-03-12T00:56:49.263Z,90.38
2019-03-12T00:59:24.283Z,90.33
2019-03-12T01:01:59.208Z,89.94
2019-03-12T01:04:34.201Z,90.18
2019-03-12T01:07:09.074Z,90.31
2019-03-12T01:10:06.059Z,90.84
2019-03-12T01:13:18.528Z,91.14
2019-03-12T01:15:53.398Z,90.76
2019-03-12T01:18:41.004Z,91.15
2019-03-12T01:21:15.872Z,91.10
2019-03-12T01:23:50.738Z,90.88
2019-03-12T01:26:25.500Z,90.69
2019-03-12T01:29:00.352Z,90.67
2019-03-12T01:31:35.230Z,90.95
2019-03-12T01:34:10.172Z,91.04
2019-03-12T01:36:45.902Z,91.27
2019-03-12T01:39:56.284Z,91.42
2019-03-12T01:42:32.134Z,91.19
2019-03-12T01:45:08.406Z,90.84
2019-03-12T01:47:43.326Z,90.81
2019-03-12T01:50:19.188Z,90.74
2019-03-12T01:52:54.162Z,91.20
2019-03-12T01:55:29.055Z,91.18
2019-03-12T01:58:03.946Z,91.21
2019-03-12T02:00:38.928Z,91.23
2019-03-12T02:03:13.942Z,91.28
2019-03-12T02:05:48.800Z,91.15
2019-03-12T02:08:23.708Z,91.05
2019-03-12T02:10:59.542Z,91.20
2019-03-12T02:13:34.555Z,91.02
2019-03-12T02:16:09.491Z,91.39
2019-03-12T02:18:44.394Z,91.46
2019-03-12T02:21:19.280Z,91.20
2019-03-12T02:23:54.177Z,91.00
2019-03-12T02:26:29.024Z,91.14
2019-03-12T02:29:04.001Z,90.87
2019-03-12T02:31:39.068Z,91.24
2019-03-12T02:34:14.875Z,91.30
2019-03-12T02:36:49.808Z,91.12
2019-03-12T02:39:24.598Z,91.29
2019-03-12T02:42:01.902Z,90.78
2019-03-12T02:44:39.538Z,91.17
2019-03-12T02:47:14.578Z,91.49
2019-03-12T02:49:49.459Z,91.32
2019-03-12T02:52:24.354Z,91.42
2019-03-12T02:54:59.426Z,91.50
2019-03-12T02:57:34.365Z,91.66
2019-03-12T03:00:16.609Z,91.70
2019-03-12T03:03:03.342Z,91.69
2019-03-12T03:05:48.616Z,91.58
2019-03-12T03:08:27.753Z,91.27
2019-03-12T03:11:03.788Z,91.66
2019-03-12T03:13:38.690Z,91.53
2019-03-12T03:16:13.587Z,91.66
2019-03-12T03:18:48.472Z,91.55
2019-03-12T03:21:23.351Z,91.78
2019-03-12T03:23:59.249Z,92.12
2019-03-12T03:26:34.145Z,92.16
2019-03-12T03:29:08.962Z,92.32
2019-03-12T03:31:43.886Z,92.41
2019-03-12T03:34:18.777Z,92.56
2019-03-12T03:36:53.854Z,92.53
2019-03-12T03:39:28.716Z,92.45
2019-03-12T03:42:03.579Z,92.33
2019-03-12T03:44:38.631Z,92.12
2019-03-12T03:47:13.530Z,92.11
2019-03-12T03:49:48.434Z,92.24
2019-03-12T03:52:23.366Z,92.23
2019-03-12T03:54:58.292Z,92.16
2019-03-12T03:57:33.385Z,92.24
2019-03-12T04:00:11.639Z,92.23
2019-03-12T04:02:46.610Z,92.25
2019-03-12T04:05:21.679Z,92.20
2019-03-12T04:07:58.450Z,92.19
2019-03-12T04:10:33.448Z,92.32
2019-03-12T04:13:09.010Z,92.20
2019-03-12T04:15:46.332Z,91.84
2019-03-12T04:18:22.953Z,91.83
2019-03-12T04:21:00.449Z,91.81
2019-03-12T04:23:38.929Z,91.64
2019-03-12T04:26:17.084Z,91.54
2019-03-12T04:28:52.500Z,91.34
2019-03-12T04:31:27.480Z,91.23
2019-03-12T04:34:44.130Z,91.17
2019-03-12T04:37:19.033Z,91.47
2019-03-12T04:39:53.922Z,91.84
2019-03-12T04:42:28.827Z,91.69
2019-03-12T04:45:03.712Z,91.70
2019-03-12T04:47:38.609Z,91.49
2019-03-12T04:50:14.083Z,91.52
2019-03-12T04:52:48.825Z,91.28
2019-03-12T04:55:23.932Z,91.33
2019-03-12T04:57:58.869Z,91.17
2019-03-12T05:00:33.824Z,91.07
2019-03-12T05:03:10.524Z,90.63
2019-03-12T05:05:45.421Z,90.64
2019-03-12T05:08:20.308Z,90.77
2019-03-12T05:10:55.122Z,90.52
2019-03-12T05:13:29.982Z,89.86
2019-03-12T05:16:05.888Z,90.04
2019-03-12T05:18:40.933Z,90.24
2019-03-12T05:21:15.818Z,90.40
2019-03-12T05:23:50.673Z,90.58
2019-03-12T05:26:26.275Z,90.78
2019-03-12T05:29:03.279Z,90.62
2019-03-12T05:31:38.805Z,90.54
2019-03-12T05:34:13.762Z,90.54
2019-03-12T05:36:48.873Z,90.44
2019-03-12T05:39:23.774Z,90.42
2019-03-12T05:41:58.682Z,90.32
2019-03-12T05:44:33.738Z,90.11
2019-03-12T05:47:08.633Z,89.93
2019-03-12T05:49:43.512Z,89.97
2019-03-12T05:52:18.415Z,89.79
2019-03-12T05:54:53.481Z,89.54
2019-03-12T05:57:31.763Z,89.55
2019-03-12T06:00:08.527Z,89.55
2019-03-12T06:03:11.263Z,89.55
2019-03-12T06:05:47.379Z,89.47
2019-03-12T06:08:22.372Z,89.41
2019-03-12T06:10:57.590Z,89.52
2019-03-12T06:14:07.389Z,89.26
2019-03-12T06:16:42.244Z,88.98
2019-03-12T06:19:17.131Z,88.64
2019-03-12T06:21:52.026Z,88.92
2019-03-12T06:24:26.923Z,87.91
2019-03-12T06:27:01.966Z,87.97
2019-03-12T06:29:58.517Z,87.86
2019-03-12T06:32:46.891Z,87.20
2019-03-12T06:35:39.687Z,86.91
2019-03-12T06:38:39.711Z,87.23
2019-03-12T06:41:30.966Z,86.62
2019-03-12T06:44:30.933Z,86.12
2019-03-12T06:47:24.692Z,86.22
2019-03-12T06:50:07.031Z,85.69
2019-03-12T06:53:16.082Z,85.50
2019-03-12T06:56:21.900Z,84.89
2019-03-12T06:59:21.851Z,84.88
2019-03-12T07:02:14.595Z,84.52
2019-03-12T07:05:08.524Z,84.32
2019-03-12T07:07:50.985Z,84.03
2019-03-12T07:10:50.853Z,82.95
2019-03-12T07:13:33.894Z,83.77
2019-03-12T07:16:20.661Z,83.96
2019-03-12T07:19:14.537Z,83.41
2019-03-12T07:21:56.767Z,83.16
2019-03-12T07:24:57.551Z,82.96
2019-03-12T07:27:48.037Z,83.45
2019-03-12T07:30:36.712Z,83.74
2019-03-12T07:33:39.729Z,83.05
2019-03-12T07:36:25.605Z,83.43
2019-03-12T07:39:24.026Z,82.60
2019-03-12T07:42:12.495Z,82.50
2019-03-12T07:45:06.231Z,82.78
2019-03-12T07:48:15.080Z,83.08
2019-03-12T07:51:06.624Z,83.02
2019-03-12T07:53:59.522Z,83.03
2019-03-12T07:56:49.838Z,82.55
2019-03-12T07:59:32.882Z,83.30
2019-03-12T08:02:18.881Z,83.62
2019-03-12T08:05:11.404Z,83.20
2019-03-12T08:08:20.421Z,84.49
2019-03-12T08:11:12.474Z,84.94
2019-03-12T08:14:04.738Z,84.66
2019-03-12T08:17:01.681Z,85.32
2019-03-12T08:19:55.291Z,85.87
2019-03-12T08:22:42.017Z,86.38
2019-03-12T08:25:47.955Z,86.57
2019-03-12T08:28:41.014Z,86.81
2019-03-12T08:31:27.089Z,87.35
2019-03-12T08:34:23.315Z,87.59
2019-03-12T08:37:32.040Z,88.04
2019-03-12T08:40:17.762Z,88.40
2019-03-12T08:43:12.165Z,88.33
2019-03-12T08:46:11.977Z,88.29
2019-03-12T08:49:38.842Z,88.36
2019-03-12T08:52:30.316Z,88.47
2019-03-12T08:55:19.759Z,88.92
2019-03-12T08:58:02.596Z,88.58
2019-03-12T09:01:02.027Z,88.90
2019-03-12T09:03:59.125Z,88.82
2019-03-12T09:06:56.207Z,88.23
2019-03-12T09:09:47.307Z,88.46
2019-03-12T09:12:30.778Z,88.07
2019-03-12T09:15:37.367Z,88.71
2019-03-12T09:18:26.752Z,88.85
2019-03-12T09:21:13.140Z,88.24
2019-03-12T09:24:40.945Z,88.69
2019-03-12T09:27:33.803Z,88.46
2019-03-12T09:30:28.569Z,88.25
2019-03-12T09:33:21.044Z,88.38
2019-03-12T09:36:20.737Z,88.55
2019-03-12T09:39:22.959Z,88.43
2019-03-12T09:42:15.185Z,88.42
2019-03-12T09:45:11.639Z,88.21
2019-03-12T09:47:53.667Z,88.22
2019-03-12T09:50:49.806Z,87.45
2019-03-12T09:53:39.281Z,87.10
2019-03-12T09:56:33.031Z,87.31
2019-03-12T09:59:24.510Z,87.25
2019-03-12T10:02:24.133Z,86.08
2019-03-12T10:05:24.789Z,85.15
2019-03-12T10:08:30.404Z,85.18
2019-03-12T10:11:11.501Z,85.28
2019-03-12T10:14:15.017Z,84.10
2019-03-12T10:17:11.781Z,82.96
2019-03-12T10:20:13.245Z,82.71
2019-03-12T10:23:15.769Z,82.52
2019-03-12T10:26:16.115Z,81.89
2019-03-12T10:29:12.697Z,81.82
2019-03-12T10:32:21.447Z,80.58
2019-03-12T10:35:27.441Z,79.61
2019-03-12T10:39:20.014Z,78.89
2019-03-12T10:42:00.796Z,78.09
2019-03-12T10:44:57.813Z,78.24
2019-03-12T10:47:33.779Z,78.11
2019-03-12T10:50:08.835Z,78.14
2019-03-12T10:53:19.085Z,77.64
2019-03-12T10:55:53.979Z,77.56
2019-03-12T10:59:04.621Z,77.77
2019-03-12T11:01:39.491Z,77.66
2019-03-12T11:04:14.388Z,77.56
2019-03-12T11:06:49.383Z,76.52
2019-03-12T11:09:49.719Z,76.62
2019-03-12T11:12:25.470Z,75.97
2019-03-12T11:15:00.533Z,75.49
2019-03-12T11:17:48.431Z,75.05
2019-03-12T11:20:14.053Z,75.65
2019-03-12T11:22:50.620Z,75.01
2019-03-12T11:25:28.087Z,73.16
2019-03-12T11:28:02.557Z,73.31
2019-03-12T11:30:37.531Z,73.85
2019-03-12T11:33:12.492Z,73.40
2019-03-12T11:35:47.441Z,72.29
2019-03-12T11:38:22.551Z,73.36
2019-03-12T11:40:59.008Z,72.22
2019-03-12T11:43:34.123Z,72.50
2019-03-12T11:46:09.918Z,71.16
2019-03-12T11:48:45.332Z,71.15
2019-03-12T11:51:21.434Z,70.57
2019-03-12T11:53:56.515Z,70.24
2019-03-12T11:56:31.473Z,70.33
2019-03-12T11:59:06.335Z,70.29
2019-03-12T12:01:43.732Z,69.20
2019-03-12T12:04:20.799Z,69.12
2019-03-12T12:06:56.962Z,69.18
2019-03-12T12:09:33.107Z,68.67
2019-03-12T12:12:09.567Z,68.40
2019-03-12T12:14:46.299Z,68.60
2019-03-12T12:17:22.056Z,67.90
2019-03-12T12:19:57.192Z,67.96
2019-03-12T12:22:32.330Z,66.91
2019-03-12T12:25:08.394Z,66.91
2019-03-12T12:27:43.414Z,67.75
2019-03-12T12:30:19.460Z,67.46
2019-03-12T12:32:54.532Z,67.19
2019-03-12T12:35:29.452Z,65.78
2019-03-12T12:38:04.432Z,65.95
2019-03-12T12:40:39.410Z,67.12
2019-03-12T12:43:14.330Z,65.59
2019-03-12T12:45:49.223Z,66.10
2019-03-12T12:48:24.182Z,65.53
2019-03-12T12:51:03.479Z,65.13
2019-03-12T12:53:36.852Z,64.87
2019-03-12T12:56:12.248Z,64.99
2019-03-12T12:58:47.077Z,63.98
2019-03-12T13:01:22.253Z,63.84
2019-03-12T13:03:57.122Z,63.87
2019-03-12T13:06:32.075Z,63.12
2019-03-12T13:09:07.790Z,63.25
2019-03-12T13:11:44.430Z,62.71
2019-03-12T13:14:19.313Z,62.75
2019-03-12T13:16:54.251Z,62.78
2019-03-12T13:19:29.152Z,62.93
2019-03-12T13:22:04.151Z,62.47
2019-03-12T13:24:40.886Z,61.21
2019-03-12T13:27:15.832Z,61.01
2019-03-12T13:29:50.678Z,61.06
2019-03-12T13:32:25.581Z,61.30
2019-03-12T13:35:00.496Z,61.08
2019-03-12T13:37:36.898Z,60.94
2019-03-12T13:40:13.984Z,61.90
2019-03-12T13:42:48.906Z,61.17
2019-03-12T13:45:23.857Z,59.49
2019-03-12T13:47:58.850Z,59.17
2019-03-12T13:50:33.966Z,60.49
2019-03-12T13:53:08.986Z,62.37
2019-03-12T13:55:43.848Z,60.78
2019-03-12T13:58:19.704Z,61.10
2019-03-12T14:00:54.562Z,60.27
2019-03-12T14:03:29.464Z,59.88
2019-03-12T14:06:04.524Z,58.44
2019-03-12T14:08:39.418Z,59.63
2019-03-12T14:11:14.432Z,62.12
2019-03-12T14:13:49.358Z,61.02
2019-03-12T14:16:24.280Z,58.28
2019-03-12T14:18:59.290Z,58.53
2019-03-12T14:21:41.484Z,58.11
2019-03-12T14:24:16.402Z,58.77
2019-03-12T14:26:51.349Z,57.27
2019-03-12T14:29:26.217Z,58.06
2019-03-12T14:32:03.208Z,56.96
2019-03-12T14:34:38.076Z,56.97
2019-03-12T14:37:13.116Z,56.52
2019-03-12T14:39:48.060Z,57.01
2019-03-12T14:42:22.952Z,56.84
2019-03-12T14:44:57.839Z,56.73
2019-03-12T14:47:33.146Z,55.33
2019-03-12T14:50:10.959Z,56.13
2019-03-12T14:52:49.814Z,55.76
2019-03-12T14:55:26.026Z,56.32
2019-03-12T14:58:01.067Z,55.71
2019-03-12T15:00:35.931Z,56.88
2019-03-12T15:03:10.894Z,55.49
2019-03-12T15:05:45.782Z,56.86
2019-03-12T15:08:20.702Z,56.63
2019-03-12T15:10:55.598Z,56.87
2019-03-12T15:13:30.576Z,56.98
2019-03-12T15:16:05.392Z,58.23
2019-03-12T15:18:40.304Z,58.66
2019-03-12T15:21:15.077Z,59.00
2019-03-12T15:23:49.950Z,58.19
2019-03-12T15:26:24.929Z,57.44
2019-03-12T15:28:59.827Z,57.35
2019-03-12T15:31:34.727Z,56.55
2019-03-12T15:34:09.658Z,56.81
2019-03-12T15:36:45.738Z,56.77
2019-03-12T15:39:20.674Z,57.46
2019-03-12T15:41:56.442Z,56.74
2019-03-12T15:44:31.414Z,56.70
2019-03-12T15:47:08.649Z,56.50
2019-03-12T15:49:43.179Z,56.96
2019-03-12T15:52:18.070Z,57.64
2019-03-12T15:54:52.997Z,57.24
2019-03-12T15:57:27.941Z,56.89
2019-03-12T16:00:02.995Z,57.67
2019-03-12T16:02:39.504Z,57.99
2019-03-12T16:05:14.618Z,57.79
2019-03-12T16:07:49.476Z,57.20
2019-03-12T16:10:24.355Z,56.90
2019-03-12T16:12:59.502Z,57.10
2019-03-12T16:15:37.481Z,56.93
2019-03-12T16:18:14.327Z,56.64
2019-03-12T16:20:47.882Z,55.99
2019-03-12T16:23:22.878Z,56.19
2019-03-12T16:25:58.081Z,56.66
2019-03-12T16:28:35.992Z,56.93
2019-03-12T16:31:10.930Z,56.01
2019-03-12T16:33:46.212Z,56.71
2019-03-12T16:36:21.218Z,56.43
2019-03-12T16:39:00.931Z,55.46
2019-03-12T16:41:41.325Z,56.16
2019-03-12T16:44:16.512Z,56.16
2019-03-12T16:46:51.574Z,55.95
2019-03-12T16:49:26.474Z,56.02
2019-03-12T16:52:01.420Z,54.54
2019-03-12T16:54:37.254Z,55.11
2019-03-12T16:57:12.171Z,55.07
2019-03-12T16:59:47.060Z,54.94
2019-03-12T17:02:22.894Z,55.32
2019-03-12T17:04:57.758Z,55.02
2019-03-12T17:07:32.703Z,55.27
2019-03-12T17:10:10.259Z,55.66
2019-03-12T17:12:46.195Z,56.17
2019-03-12T17:15:21.389Z,55.02
2019-03-12T17:17:56.365Z,55.52
2019-03-12T17:20:32.273Z,55.66
2019-03-12T17:23:07.512Z,55.76
2019-03-12T17:25:42.588Z,56.47
2019-03-12T17:28:17.490Z,56.47
2019-03-12T17:30:52.460Z,56.46
2019-03-12T17:33:28.298Z,57.19
2019-03-12T17:36:03.196Z,56.27
2019-03-12T17:38:46.558Z,56.50
2019-03-12T17:41:15.069Z,57.51
2019-03-12T17:43:49.974Z,57.84
2019-03-12T17:46:25.002Z,61.30
2019-03-12T17:48:59.909Z,63.28
2019-03-12T17:51:34.938Z,62.57
2019-03-12T17:54:09.887Z,61.91
2019-03-12T17:56:44.682Z,62.14
2019-03-12T17:59:19.751Z,62.49
2019-03-12T18:01:54.652Z,61.65
2019-03-12T18:04:29.527Z,60.65
2019-03-12T18:07:04.455Z,60.17
2019-03-12T18:09:39.343Z,60.43
2019-03-12T18:12:14.285Z,58.34
2019-03-12T18:14:53.988Z,58.90
2019-03-12T18:17:29.774Z,60.06
2019-03-12T18:20:05.698Z,58.48
2019-03-12T18:22:40.637Z,58.25
2019-03-12T18:25:19.561Z,58.37
2019-03-12T18:27:54.485Z,60.13
2019-03-12T18:30:29.374Z,59.88
2019-03-12T18:33:04.690Z,59.75
2019-03-12T18:35:39.567Z,58.71
2019-03-12T18:38:14.523Z,57.94
2019-03-12T18:40:49.517Z,57.48
2019-03-12T18:43:24.428Z,56.21
2019-03-12T18:45:59.355Z,56.69
2019-03-12T18:48:34.243Z,55.81
2019-03-12T18:51:09.133Z,55.99
2019-03-12T18:53:44.044Z,55.40
2019-03-12T18:56:18.909Z,55.15
2019-03-12T18:58:53.809Z,55.28
2019-03-12T19:01:28.775Z,55.25
2019-03-12T19:04:03.709Z,55.63
2019-03-12T19:06:38.582Z,56.93
2019-03-12T19:09:13.601Z,55.32
2019-03-12T19:11:51.266Z,55.07
2019-03-12T19:14:26.216Z,55.50
2019-03-12T19:17:01.083Z,54.70
2019-03-12T19:19:36.070Z,53.66
2019-03-12T19:22:10.936Z,53.32
2019-03-12T19:24:45.889Z,53.52
2019-03-12T19:27:20.802Z,53.92
2019-03-12T19:29:55.710Z,54.36
2019-03-12T19:32:50.843Z,53.63
2019-03-12T19:35:25.913Z,53.47
2019-03-12T19:38:01.752Z,53.83
2019-03-12T19:40:37.022Z,54.27
2019-03-12T19:43:15.959Z,54.66
2019-03-12T19:45:51.029Z,54.20
2019-03-12T19:48:26.764Z,54.37
2019-03-12T19:51:01.742Z,55.53
2019-03-12T19:53:36.729Z,55.73
2019-03-12T19:56:11.633Z,56.45
2019-03-12T19:58:46.600Z,58.24
2019-03-12T20:01:21.886Z,63.07
2019-03-12T20:03:56.784Z,64.95
2019-03-12T20:06:32.706Z,68.31
2019-03-12T20:09:09.939Z,69.49
2019-03-12T20:12:39.392Z,70.16
2019-03-12T20:16:17.289Z,70.40
2019-03-12T20:20:03.735Z,71.66
2019-03-12T20:23:36.396Z,72.89
2019-03-12T20:27:04.417Z,74.64
2019-03-12T20:30:30.280Z,73.78
2019-03-12T20:34:08.352Z,73.92
2019-03-12T20:37:43.500Z,74.28
2019-03-12T20:41:18.167Z,74.79
2019-03-12T20:44:56.099Z,74.52
2019-03-12T20:48:25.349Z,74.16
2019-03-12T20:52:26.425Z,74.56
2019-03-12T20:56:11.616Z,74.92
2019-03-12T21:00:34.994Z,74.15
2019-03-12T21:04:14.423Z,75.36
2019-03-12T21:08:06.950Z,74.14
2019-03-12T21:11:59.060Z,74.57
2019-03-12T21:15:21.233Z,76.12
2019-03-12T21:19:18.885Z,76.58
2019-03-12T21:22:38.686Z,77.70
2019-03-12T21:26:23.179Z,79.40
2019-03-12T21:29:53.591Z,79.72
2019-03-12T21:32:28.523Z,79.58
2019-03-12T21:35:03.504Z,79.53
2019-03-12T21:37:38.715Z,80.00
2019-03-12T21:40:14.808Z,79.40
2019-03-12T21:42:49.716Z,77.45
2019-03-12T21:45:24.609Z,77.81
2019-03-12T21:47:59.445Z,77.41
2019-03-12T21:50:34.322Z,78.04
2019-03-12T21:53:09.306Z,76.78
2019-03-12T21:55:44.227Z,76.79
2019-03-12T21:58:19.073Z,76.22
2019-03-12T22:00:53.982Z,76.76
2019-03-12T22:03:28.939Z,76.37
2019-03-12T22:06:03.813Z,76.48
2019-03-12T22:08:38.659Z,76.32
2019-03-12T22:11:13.641Z,77.52
2019-03-12T22:13:48.577Z,79.35
2019-03-12T22:16:24.440Z,80.71
2019-03-12T22:18:59.359Z,82.61
2019-03-12T22:21:43.084Z,82.98
2019-03-12T22:24:20.596Z,84.51
2019-03-12T22:26:55.461Z,86.15
2019-03-12T22:29:30.359Z,86.56
2019-03-12T22:32:10.402Z,87.10
2019-03-12T22:34:46.125Z,87.84
2019-03-12T22:37:20.999Z,87.40
2019-03-12T22:39:55.895Z,87.43
2019-03-12T22:42:30.768Z,87.41
2019-03-12T22:45:06.162Z,87.45
2019-03-12T22:47:41.029Z,87.32
2019-03-12T22:50:15.938Z,87.49
2019-03-12T22:52:51.680Z,87.61
2019-03-12T22:55:26.562Z,87.66
2019-03-12T22:58:01.455Z,87.82
2019-03-12T23:00:56.379Z,88.01
2019-03-12T23:03:48.680Z,87.89
2019-03-12T23:06:41.326Z,88.41
2019-03-12T23:09:34.357Z,88.21
2019-03-12T23:12:11.136Z,88.23
2019-03-12T23:14:47.440Z,88.10
2019-03-12T23:17:24.195Z,88.13
2019-03-12T23:19:59.104Z,88.11
2019-03-12T23:22:34.096Z,88.42
2019-03-12T23:25:14.782Z,88.35
2019-03-12T23:27:52.798Z,88.46
2019-03-12T23:30:28.854Z,87.95
2019-03-12T23:33:04.132Z,88.21
2019-03-12T23:35:38.988Z,88.18
2019-03-12T23:38:14.176Z,88.37
2019-03-12T23:40:49.040Z,88.20
2019-03-12T23:43:24.113Z,88.21
2019-03-12T23:45:59.077Z,87.88
2019-03-12T23:48:33.968Z,87.44
2019-03-12T23:51:08.944Z,87.97
2019-03-12T23:53:43.844Z,88.06
2019-03-12T23:56:21.680Z,87.96
2019-03-12T23:58:56.587Z,87.38
